Time;durP1;ratioP1;P1;durP2;ratioP2;P2;SDS_P1;SDS_P2;PMS_P1;PMS_P2;Temp;Humidity;BMP_temperature;BMP_pressure;BME280_temperature;BME280_humidity;BME280_pressure;Samples;Min_cycle;Max_cycle;Signal;HPM_P1;HPM_P2
2023/02/05 00:02:16;;;;;;;;;;;;;;;-3.54;92.42;103107.88;4916762;29;19911;-67
2023/02/05 00:04:41;;;;;;;;;;;;;;;-3.56;92.56;103107.03;4917637;29;20375;-66
2023/02/05 00:07:07;;;;;;;;;;;;;;;-3.58;92.41;103102.72;4917529;29;19922;-67
2023/02/05 00:09:32;;;;;;;;;;;;;;;-3.57;93.68;103097.47;4917814;29;19962;-66
2023/02/05 00:11:58;;;;;;;;;;;;;;;-3.56;93.56;103099.22;4917808;29;19974;-66
2023/02/05 00:14:24;;;;;;;;;;;;;;;-3.54;93.40;103100.06;4917900;29;19947;-66
2023/02/05 00:16:50;;;;;;;;;;;;;;;-3.56;92.71;103101.81;4918150;29;19918;-66
2023/02/05 00:19:15;;;;;;;;;;;;;;;-3.57;92.79;103107.03;4917924;29;19910;-66
2023/02/05 00:21:40;;;;;;;;;;;;;;;-3.65;92.46;103112.34;4901257;29;19911;-66
2023/02/05 00:24:06;;;;;;;;;;;;;;;-3.72;92.67;103110.66;4917844;29;19950;-65
2023/02/05 00:26:31;;;;;;;;;;;;;;;-3.75;93.38;103108.09;4918031;29;20340;-67
2023/02/05 00:28:56;;;;;;;;;;;;;;;-3.72;93.08;103102.84;4919130;29;20043;-67
2023/02/05 00:31:22;;;;;;;;;;;;;;;-3.62;92.97;103107.09;4918102;29;19911;-67
2023/02/05 00:33:48;;;;;;;;;;;;;;;-3.53;92.59;103093.97;4917404;29;19911;-65
2023/02/05 00:36:14;;;;;;;;;;;;;;;-3.57;91.11;103097.47;4918863;29;19911;-67
2023/02/05 00:38:40;;;;;;;;;;;;;;;-3.77;91.81;103092.47;4919117;29;19934;-67
2023/02/05 00:41:05;;;;;;;;;;;;;;;-3.77;92.55;103091.59;4918454;29;19942;-67
2023/02/05 00:43:31;;;;;;;;;;;;;;;-3.77;92.43;103099.41;4900087;29;20395;-67
2023/02/05 00:45:56;;;;;;;;;;;;;;;-3.78;92.65;103100.28;4917077;29;19918;-66
2023/02/05 00:48:22;;;;;;;;;;;;;;;-3.82;91.93;103109.00;4917003;29;19918;-65
2023/02/05 00:50:48;;;;;;;;;;;;;;;-3.89;91.88;103108.19;4917007;29;20427;-66
2023/02/05 00:53:13;;;;;;;;;;;;;;;-4.01;92.03;103110.91;4917016;29;20256;-66
2023/02/05 00:55:38;;;;;;;;;;;;;;;-4.13;91.10;103114.47;4917053;29;19918;-66
2023/02/05 00:58:06;;;;;;;;;;;;;;;-4.23;92.48;103118.00;4916857;29;19979;-66
2023/02/05 01:00:32;;;;;;;;;;;;;;;-4.24;92.51;103113.69;4916903;29;20300;-69
2023/02/05 01:02:58;;;;;;;;;;;;;;;-4.25;92.65;103121.50;4917210;29;19915;-66
2023/02/05 01:05:23;;;;;;;;;;;;;;;-4.36;91.27;103118.94;4900150;29;19914;-65
2023/02/05 01:07:48;;;;;;;;;;;;;;;-4.51;92.04;103106.91;4916914;29;19910;-67
2023/02/05 01:10:14;;;;;;;;;;;;;;;-4.53;92.78;103097.41;4916973;29;20005;-66
2023/02/05 01:12:39;;;;;;;;;;;;;;;-4.55;92.43;103106.94;4899948;29;19958;-67
2023/02/05 01:15:05;;;;;;;;;;;;;;;-4.63;92.95;103106.97;4916766;29;20300;-67
2023/02/05 01:17:31;;;;;;;;;;;;;;;-4.72;92.65;103105.28;4916639;29;19918;-65
2023/02/05 01:19:56;;;;;;;;;;;;;;;-4.81;92.98;103115.75;4915909;29;20022;-66
2023/02/05 01:22:21;;;;;;;;;;;;;;;-4.78;93.73;103112.25;4916577;29;19911;-65
2023/02/05 01:24:46;;;;;;;;;;;;;;;-4.78;93.36;103110.53;4916632;29;19911;-66
2023/02/05 01:27:12;;;;;;;;;;;;;;;-4.82;93.71;103116.63;4916611;29;20394;-66
2023/02/05 01:29:37;;;;;;;;;;;;;;;-4.86;93.96;103116.63;4916552;29;20013;-65
2023/02/05 01:32:02;;;;;;;;;;;;;;;-4.82;94.08;103118.34;4916480;29;19917;-67
2023/02/05 01:34:28;;;;;;;;;;;;;;;-4.78;94.13;103126.13;4916423;29;19911;-67
2023/02/05 01:36:53;;;;;;;;;;;;;;;-4.75;93.27;103120.91;4916451;29;19911;-65
2023/02/05 01:39:18;;;;;;;;;;;;;;;-4.71;93.83;103125.22;4916347;29;19911;-67
2023/02/05 01:41:45;;;;;;;;;;;;;;;-4.79;93.17;103119.19;4916399;29;19918;-67
2023/02/05 01:44:10;;;;;;;;;;;;;;;-4.81;93.94;103114.88;4916415;29;20334;-65
2023/02/05 01:46:37;;;;;;;;;;;;;;;-4.82;94.00;103111.41;4899304;29;19946;-66
2023/02/05 01:49:04;;;;;;;;;;;;;;;-4.76;94.73;103119.19;4916640;29;20009;-66
2023/02/05 01:51:30;;;;;;;;;;;;;;;-4.64;93.38;103112.19;4916440;29;19911;-66
2023/02/05 01:53:58;;;;;;;;;;;;;;;-4.60;94.13;103101.78;4916257;29;19966;-66
2023/02/05 01:56:51;;;;;;;;;;;;;;;-4.50;93.65;103111.25;4916209;29;19926;-66
2023/02/05 01:59:18;;;;;;;;;;;;;;;-4.46;93.31;103101.69;4899073;29;19915;-67
2023/02/05 02:01:44;;;;;;;;;;;;;;;-4.44;93.26;103105.13;4916245;29;19917;-66
2023/02/05 02:04:13;;;;;;;;;;;;;;;-4.40;92.96;103099.03;4916062;29;19915;-67
2023/02/05 02:06:39;;;;;;;;;;;;;;;-4.35;93.52;103102.47;4916056;29;20418;-66
2023/02/05 02:09:05;;;;;;;;;;;;;;;-4.36;92.39;103109.41;4916027;29;19911;-66
2023/02/05 02:11:34;;;;;;;;;;;;;;;-4.37;93.25;103105.06;4916101;29;20382;-69
2023/02/05 02:14:00;;;;;;;;;;;;;;;-4.34;92.46;103109.41;4916347;29;19923;-67
2023/02/05 02:16:26;;;;;;;;;;;;;;;-4.30;92.29;103107.66;4917055;29;19911;-66
2023/02/05 02:18:52;;;;;;;;;;;;;;;-4.23;92.35;103105.00;4917113;29;19983;-67
2023/02/05 02:21:20;;;;;;;;;;;;;;;-4.26;91.66;103110.22;4916622;29;20002;-66
2023/02/05 02:24:06;;;;;;;;;;;;;;;-4.20;92.41;103101.50;4915973;29;19911;-68
2023/02/05 02:26:39;;;;;;;;;;;;;;;-4.16;92.03;103098.88;4908748;29;20009;-66
2023/02/05 02:29:06;;;;;;;;;;;;;;;-4.11;91.92;103099.69;4916264;29;19959;-68
2023/02/05 02:31:31;;;;;;;;;;;;;;;-4.12;91.75;103095.38;4918040;29;20032;-67
2023/02/05 02:33:57;;;;;;;;;;;;;;;-4.07;91.61;103104.00;4919643;29;20129;-68
2023/02/05 02:36:40;;;;;;;;;;;;;;;-4.03;91.62;103101.41;4921094;29;19911;-66
2023/02/05 02:39:05;;;;;;;;;;;;;;;-4.07;90.44;103104.00;4920263;29;20005;-67
2023/02/05 02:41:37;;;;;;;;;;;;;;;-4.11;90.63;103110.09;4919465;29;20368;-69
2023/02/05 02:44:22;;;;;;;;;;;;;;;-4.07;92.10;103105.72;4902581;29;19913;-69
2023/02/05 02:46:50;;;;;;;;;;;;;;;-4.00;91.60;103119.59;4919485;29;19910;-67
2023/02/05 02:49:23;;;;;;;;;;;;;;;-4.02;91.07;103119.59;4919277;29;19911;-69
2023/02/05 02:51:50;;;;;;;;;;;;;;;-4.03;91.56;103117.00;4919475;29;20339;-66
2023/02/05 02:54:17;;;;;;;;;;;;;;;-4.01;91.37;103115.25;4919204;29;19911;-68
2023/02/05 02:56:43;;;;;;;;;;;;;;;-4.03;91.29;103111.81;4919418;29;19949;-66
2023/02/05 02:59:14;;;;;;;;;;;;;;;-4.08;90.46;103117.88;4919064;29;19957;-68
2023/02/05 03:01:41;;;;;;;;;;;;;;;-4.15;91.29;103123.16;4919019;29;19915;-67
2023/02/05 03:04:19;;;;;;;;;;;;;;;-4.26;91.20;103125.84;4902106;29;19922;-68
2023/02/05 03:06:47;;;;;;;;;;;;;;;-4.38;91.10;103131.09;4919111;29;19922;-67
2023/02/05 03:09:20;;;;;;;;;;;;;;;-4.45;92.15;103132.03;4919187;29;19910;-66
2023/02/05 03:11:45;;;;;;;;;;;;;;;-4.47;92.48;103131.16;4918971;29;19911;-67
2023/02/05 03:14:10;;;;;;;;;;;;;;;-4.43;92.21;103132.88;4918660;29;20274;-68
2023/02/05 03:16:36;;;;;;;;;;;;;;;-4.42;nan;103129.41;4919016;29;19918;-68
2023/02/05 03:19:04;;;;;;;;;;;;;;;-4.44;91.58;103137.22;4918989;29;19974;-68
2023/02/05 03:21:32;;;;;;;;;;;;;;;-4.44;90.90;103123.34;4918763;29;20009;-66
2023/02/05 03:23:58;;;;;;;;;;;;;;;-4.43;91.83;103122.47;4919178;29;19911;-68
2023/02/05 03:26:24;;;;;;;;;;;;;;;-4.58;91.20;103127.78;4918740;29;20005;-67
2023/02/05 03:28:50;;;;;;;;;;;;;;;-4.61;91.76;103133.00;4918365;29;19958;-66
2023/02/05 03:31:21;;;;;;;;;;;;;;;-4.57;92.50;103125.16;4918903;29;19911;-67
2023/02/05 03:34:04;;;;;;;;;;;;;;;-4.53;92.40;103131.22;4919270;29;19911;-68
2023/02/05 03:36:39;;;;;;;;;;;;;;;-4.48;92.46;103134.63;4918568;29;19922;-67
2023/02/05 03:39:22;;;;;;;;;;;;;;;-4.49;90.98;103138.97;4918456;29;19934;-67
2023/02/05 03:42:00;;;;;;;;;;;;;;;-4.49;91.09;103135.50;4918272;29;19917;-67
2023/02/05 03:44:41;;;;;;;;;;;;;;;-4.52;91.62;103145.94;4918149;29;19918;-67
2023/02/05 03:47:07;;;;;;;;;;;;;;;-4.56;90.73;103146.81;4918249;29;20399;-66
2023/02/05 03:49:41;;;;;;;;;;;;;;;-4.65;91.07;103144.25;4918236;29;19969;-66
2023/02/05 03:52:14;;;;;;;;;;;;;;;-4.74;91.11;103143.44;4918371;29;20271;-66
2023/02/05 03:54:40;;;;;;;;;;;;;;;-4.79;91.82;103150.38;4901408;29;19911;-69
2023/02/05 03:57:17;;;;;;;;;;;;;;;-4.71;92.29;103161.63;4918179;29;19918;-67
2023/02/05 03:59:43;;;;;;;;;;;;;;;-4.67;92.31;103158.13;4918507;29;19911;-67
2023/02/05 04:02:09;;;;;;;;;;;;;;;-4.65;92.41;103165.06;4917965;29;19919;-67
2023/02/05 04:04:36;;;;;;;;;;;;;;;-4.59;92.10;103168.50;4918154;29;20260;-67
2023/02/05 04:07:01;;;;;;;;;;;;;;;-4.56;92.20;103162.44;4918381;29;20015;-67
2023/02/05 04:09:27;;;;;;;;;;;;;;;-4.54;91.81;103168.50;4917972;29;20000;-68
2023/02/05 04:11:52;;;;;;;;;;;;;;;-4.59;91.14;103165.06;4918360;29;19911;-69
2023/02/05 04:14:17;;;;;;;;;;;;;;;-4.63;91.52;103171.09;4917779;29;19911;-66
2023/02/05 04:16:43;;;;;;;;;;;;;;;-4.65;91.43;103172.84;4900742;29;20356;-69
2023/02/05 04:19:08;;;;;;;;;;;;;;;-4.71;91.66;103172.00;4917743;29;19918;-68
2023/02/05 04:21:33;;;;;;;;;;;;;;;-4.70;91.54;103171.13;4917726;29;20383;-66
2023/02/05 04:23:58;;;;;;;;;;;;;;;-4.68;92.20;103176.34;4917806;29;20237;-66
2023/02/05 04:26:24;;;;;;;;;;;;;;;-4.66;92.49;103185.00;4917631;29;20291;-67
2023/02/05 04:28:49;;;;;;;;;;;;;;;-4.60;91.37;103186.72;4917588;29;19921;-67
2023/02/05 04:31:14;;;;;;;;;;;;;;;-4.65;91.44;103191.06;4917540;29;20347;-69
2023/02/05 04:33:40;;;;;;;;;;;;;;;-4.77;91.75;103195.44;4917561;29;19911;-67
2023/02/05 04:36:06;;;;;;;;;;;;;;;-4.75;91.50;103193.69;4917427;29;19942;-65
2023/02/05 04:38:31;;;;;;;;;;;;;;;-4.69;91.63;103198.00;4917502;29;19911;-67
2023/02/05 04:40:56;;;;;;;;;;;;;;;-4.74;90.74;103195.44;4917358;29;20021;-67
2023/02/05 04:43:22;;;;;;;;;;;;;;;-4.84;90.64;103200.66;4917327;29;19911;-69
2023/02/05 04:45:47;;;;;;;;;;;;;;;-4.96;90.63;103196.34;4917649;29;19911;-67
2023/02/05 04:48:13;;;;;;;;;;;;;;;-4.97;91.76;103197.22;4917613;29;19950;-67
2023/02/05 04:50:38;;;;;;;;;;;;;;;-5.11;91.52;103204.19;4917107;29;19984;-67
2023/02/05 04:53:04;;;;;;;;;;;;;;;-5.12;92.17;103197.28;4917144;29;20411;-68
2023/02/05 04:55:30;;;;;;;;;;;;;;;-5.11;92.74;103199.00;4917074;29;19966;-67
2023/02/05 04:57:55;;;;;;;;;;;;;;;-5.08;92.54;103202.47;4917038;29;19914;-67
2023/02/05 05:00:20;;;;;;;;;;;;;;;-5.05;92.58;103199.84;4917032;29;19938;-67
2023/02/05 05:03:10;;;;;;;;;;;;;;;-5.15;91.19;103202.47;4917164;29;19953;-69
2023/02/05 05:05:36;;;;;;;;;;;;;;;-5.31;91.20;103207.69;4916887;29;19962;-68
2023/02/05 05:08:02;;;;;;;;;;;;;;;-5.43;91.40;103199.91;4917026;29;19914;-67
2023/02/05 05:10:27;;;;;;;;;;;;;;;-5.55;91.68;103199.91;4916644;29;19911;-69
2023/02/05 05:12:52;;;;;;;;;;;;;;;-5.79;91.30;103198.16;4916267;29;19911;-68
2023/02/05 05:15:18;;;;;;;;;;;;;;;-5.84;92.79;103202.47;4916636;29;19918;-67
2023/02/05 05:17:43;;;;;;;;;;;;;;;-5.95;93.65;103197.31;4916891;29;19953;-68
2023/02/05 05:20:09;;;;;;;;;;;;;;;-6.00;94.07;103199.06;4916583;29;19915;-68
2023/02/05 05:22:34;;;;;;;;;;;;;;;-5.99;93.88;103186.94;4916545;29;19918;-69
2023/02/05 05:24:59;;;;;;;;;;;;;;;-6.04;93.44;103202.50;4916385;29;20430;-68
2023/02/05 05:27:25;;;;;;;;;;;;;;;-6.02;93.12;103205.97;4899496;29;19911;-68
2023/02/05 05:29:50;;;;;;;;;;;;;;;-6.02;93.67;103210.28;4916764;29;19989;-67
2023/02/05 05:32:15;;;;;;;;;;;;;;;-6.07;93.66;103225.84;4916409;29;19911;-67
2023/02/05 05:34:41;;;;;;;;;;;;;;;-6.11;93.56;103216.31;4916579;29;19959;-68
2023/02/05 05:37:06;;;;;;;;;;;;;;;-6.16;93.28;103227.53;4899625;29;19954;-67
2023/02/05 05:45:09;;;;;;;;;;;;;;;-6.23;93.52;103216.28;4916668;29;19915;-69
2023/02/05 05:47:35;;;;;;;;;;;;;;;-6.17;93.02;103216.31;4916657;29;20059;-67
2023/02/05 05:50:00;;;;;;;;;;;;;;;-6.20;93.54;103211.09;4899260;29;19919;-67
2023/02/05 05:52:26;;;;;;;;;;;;;;;-6.24;93.26;103217.16;4916336;29;20360;-66
2023/02/05 05:54:51;;;;;;;;;;;;;;;-6.30;93.51;103219.72;4916151;29;19911;-67
2023/02/05 05:57:16;;;;;;;;;;;;;;;-6.31;93.75;103218.00;4917021;29;20300;-66
2023/02/05 05:59:42;;;;;;;;;;;;;;;-6.40;93.62;103224.00;4917282;29;19918;-68
2023/02/05 06:02:07;;;;;;;;;;;;;;;-6.49;93.57;103223.09;4917016;29;19914;-67
2023/02/05 06:04:34;;;;;;;;;;;;;;;-6.43;93.67;103218.81;4900325;29;20283;-67
2023/02/05 06:07:01;;;;;;;;;;;;;;;-6.33;93.47;103217.13;4920310;29;19922;-68
2023/02/05 06:09:26;;;;;;;;;;;;;;;-6.44;94.18;103229.16;4921789;29;19911;-68
2023/02/05 06:11:51;;;;;;;;;;;;;;;-6.43;93.80;103228.31;4920863;29;19934;-68
2023/02/05 06:14:17;;;;;;;;;;;;;;;-6.32;94.95;103231.84;4903738;29;19965;-67
2023/02/05 06:16:42;;;;;;;;;;;;;;;-6.16;94.82;103230.13;4920645;29;20002;-68
2023/02/05 06:19:07;;;;;;;;;;;;;;;-6.19;94.56;103223.22;4919965;29;19911;-68
2023/02/05 06:21:32;;;;;;;;;;;;;;;-6.18;94.44;103218.88;4920057;29;19915;-68
2023/02/05 06:23:58;;;;;;;;;;;;;;;-6.14;94.89;103221.50;4919622;29;19923;-67
2023/02/05 06:26:23;;;;;;;;;;;;;;;-6.07;94.33;103218.06;4919733;29;20311;-68
2023/02/05 06:28:48;;;;;;;;;;;;;;;-5.98;94.43;103225.88;4920834;29;20013;-67
2023/02/05 06:31:14;;;;;;;;;;;;;;;-5.95;94.08;103223.28;4903221;29;19917;-68
2023/02/05 06:33:39;;;;;;;;;;;;;;;-5.86;94.15;103222.38;4919567;29;19934;-70
2023/02/05 06:36:05;;;;;;;;;;;;;;;-5.83;93.54;103218.91;4919330;29;20379;-67
2023/02/05 06:38:30;;;;;;;;;;;;;;;-5.88;93.91;103218.06;4919397;29;19915;-67
2023/02/05 06:40:55;;;;;;;;;;;;;;;-5.93;93.93;103223.28;4919279;29;20372;-67
2023/02/05 06:43:21;;;;;;;;;;;;;;;-5.85;93.22;103215.47;4919761;29;20374;-69
2023/02/05 06:45:47;;;;;;;;;;;;;;;-5.81;93.32;103222.38;4919599;29;19911;-68
2023/02/05 06:48:12;;;;;;;;;;;;;;;-5.70;93.62;103225.88;4921271;29;19969;-67
2023/02/05 06:50:37;;;;;;;;;;;;;;;-5.68;92.78;103226.75;4920552;29;19911;-65
2023/02/05 06:53:03;;;;;;;;;;;;;;;-5.70;93.10;103215.50;4924494;29;19969;-65
2023/02/05 06:55:28;;;;;;;;;;;;;;;-5.90;91.92;103212.91;4939893;29;19918;-68
2023/02/05 06:57:53;;;;;;;;;;;;;;;-5.84;92.51;103210.28;4908535;29;19980;-70
2023/02/05 07:00:19;;;;;;;;;;;;;;;-5.76;93.09;103212.91;4940317;29;19921;-68
2023/02/05 07:02:44;;;;;;;;;;;;;;;-5.67;93.14;103220.69;4939165;29;19945;-68
2023/02/05 07:05:10;;;;;;;;;;;;;;;-5.59;93.31;103224.13;4938039;29;20343;-71
2023/02/05 07:07:36;;;;;;;;;;;;;;;-5.68;92.75;103222.41;4937771;29;19915;-69
2023/02/05 07:10:01;;;;;;;;;;;;;;;-5.70;93.60;103218.09;4937948;29;20073;-71
2023/02/05 07:12:26;;;;;;;;;;;;;;;-5.64;93.08;103210.28;4937936;29;19950;-69
2023/02/05 07:14:52;;;;;;;;;;;;;;;-5.56;93.16;103221.53;4920444;29;20324;-70
2023/02/05 07:17:17;;;;;;;;;;;;;;;-5.55;92.26;103222.41;4936446;29;20003;-70
2023/02/05 07:19:42;;;;;;;;;;;;;;;-5.63;91.96;103214.63;4937745;29;19911;-69
2023/02/05 07:22:09;;;;;;;;;;;;;;;-5.71;92.43;103217.22;4938633;29;20259;-69
2023/02/05 07:24:34;;;;;;;;;;;;;;;-5.69;92.91;103214.63;4937805;29;20343;-66
2023/02/05 07:27:00;;;;;;;;;;;;;;;-5.66;92.63;103209.44;4937721;29;19917;-78
2023/02/05 07:29:26;;;;;;;;;;;;;;;-5.66;92.34;103209.44;4937747;29;19918;-71
2023/02/05 07:31:51;;;;;;;;;;;;;;;-5.60;92.65;103209.44;4937610;29;19974;-70
2023/02/05 07:34:17;;;;;;;;;;;;;;;-5.53;91.80;103205.97;4937409;29;19973;-68
2023/02/05 07:36:43;;;;;;;;;;;;;;;-5.56;91.06;103198.16;4920291;29;20009;-70
2023/02/05 07:39:15;;;;;;;;;;;;;;;-5.64;91.65;103195.59;4937552;29;20001;-80
2023/02/05 07:42:03;;;;;;;;;;;;;;;-5.62;92.16;103203.38;4904896;29;19914;-78
2023/02/05 07:44:28;;;;;;;;;;;;;;;-5.66;92.59;103199.91;4936607;29;19934;-71
2023/02/05 07:46:54;;;;;;;;;;;;;;;-5.74;92.69;103201.66;4937175;29;19911;-71
2023/02/05 07:49:19;;;;;;;;;;;;;;;-5.67;91.87;103199.91;4936990;29;19961;-68
2023/02/05 07:51:44;;;;;;;;;;;;;;;-5.67;92.44;103197.31;4919826;29;19954;-70
2023/02/05 07:54:13;;;;;;;;;;;;;;;-5.50;92.28;103203.34;4937238;29;20379;-74
2023/02/05 07:56:38;;;;;;;;;;;;;;;-5.38;91.83;103200.78;4936835;29;20010;-70
2023/02/05 07:59:05;;;;;;;;;;;;;;;-5.32;91.47;103194.69;4920026;29;20508;-68
2023/02/05 08:01:30;;;;;;;;;;;;;;;-5.46;91.18;103191.25;4934595;29;19937;-70
2023/02/05 08:03:56;;;;;;;;;;;;;;;-5.51;91.42;103191.25;4935948;29;20320;-68
2023/02/05 08:06:23;;;;;;;;;;;;;;;-5.54;90.69;103206.81;4936226;29;19934;-68
2023/02/05 08:08:49;;;;;;;;;;;;;;;-5.63;90.91;103201.63;4936308;29;20046;-68
2023/02/05 08:11:15;;;;;;;;;;;;;;;-5.71;90.66;103211.16;4936226;29;20090;-69
2023/02/05 08:13:41;;;;;;;;;;;;;;;-5.68;91.20;103206.84;4935991;29;20013;-69
2023/02/05 08:16:06;;;;;;;;;;;;;;;-5.67;90.91;103212.91;4918600;29;20037;-68
2023/02/05 08:18:32;;;;;;;;;;;;;;;-5.75;90.69;103214.63;4935743;29;19910;-70
2023/02/05 08:20:57;;;;;;;;;;;;;;;-5.70;90.78;103211.16;4935888;29;19955;-70
2023/02/05 08:23:23;;;;;;;;;;;;;;;-5.80;90.83;103211.13;4936047;29;19911;-69
2023/02/05 08:25:52;;;;;;;;;;;;;;;-5.88;90.18;103205.06;4935560;29;20358;-68
2023/02/05 08:28:17;;;;;;;;;;;;;;;-5.89;90.03;103206.81;4935279;29;19918;-69
2023/02/05 08:30:42;;;;;;;;;;;;;;;-5.84;90.79;103209.41;4935686;29;19910;-71
2023/02/05 08:33:08;;;;;;;;;;;;;;;-5.77;90.75;103212.03;4935571;29;19918;-71
2023/02/05 08:35:45;;;;;;;;;;;;;;;-5.65;90.64;103208.56;4935651;29;19999;-69
2023/02/05 08:38:11;;;;;;;;;;;;;;;-5.49;90.39;103210.31;4936147;29;20380;-71
2023/02/05 08:40:36;;;;;;;;;;;;;;;-5.58;89.69;103223.28;4935074;29;19914;-71
2023/02/05 08:43:01;;;;;;;;;;;;;;;-5.58;89.82;103217.22;4935534;29;19911;-69
2023/02/05 08:45:27;;;;;;;;;;;;;;;-5.59;89.71;103220.69;4935544;29;19911;-70
2023/02/05 08:47:52;;;;;;;;;;;;;;;-5.69;89.58;103225.88;4935247;29;19934;-74
2023/02/05 08:50:18;;;;;;;;;;;;;;;-5.65;89.76;103226.75;4935683;29;19915;-70
2023/02/05 08:52:43;;;;;;;;;;;;;;;-5.73;89.83;103223.28;4935417;29;19911;-69
2023/02/05 08:55:09;;;;;;;;;;;;;;;-5.71;89.97;103213.75;4935389;29;19923;-69
2023/02/05 08:57:34;;;;;;;;;;;;;;;-5.57;88.99;103217.22;4935617;29;19911;-69
2023/02/05 08:59:59;;;;;;;;;;;;;;;-5.55;88.78;103223.28;4936176;29;19910;-69
2023/02/05 09:02:25;;;;;;;;;;;;;;;-5.55;89.03;103220.66;4936070;29;19917;-71
2023/02/05 09:04:53;;;;;;;;;;;;;;;-5.61;89.11;103205.09;4923396;29;19921;-68
2023/02/05 09:07:18;;;;;;;;;;;;;;;-5.57;88.86;103196.44;4937387;29;19926;-68
2023/02/05 09:09:44;;;;;;;;;;;;;;;-5.48;88.65;103182.63;4935423;29;19915;-71
2023/02/05 09:12:09;;;;;;;;;;;;;;;-5.39;89.38;103193.84;4935233;29;19916;-69
2023/02/05 09:14:35;;;;;;;;;;;;;;;-5.38;89.40;103177.41;4935623;29;19978;-70
2023/02/05 09:17:04;;;;;;;;;;;;;;;-5.33;88.87;103174.78;4937781;29;19946;-72
2023/02/05 09:19:32;;;;;;;;;;;;;;;-5.20;89.01;103170.47;4937429;29;19914;-69
2023/02/05 09:21:57;;;;;;;;;;;;;;;-5.14;89.04;103160.03;4938514;29;19966;-72
2023/02/05 09:24:23;;;;;;;;;;;;;;;-5.05;88.37;103162.59;4938817;29;19910;-67
2023/02/05 09:26:48;;;;;;;;;;;;;;;-4.99;88.85;103178.19;4938579;29;19915;-68
2023/02/05 09:29:13;;;;;;;;;;;;;;;-4.98;88.97;103179.91;4935959;29;19910;-69
2023/02/05 09:31:39;;;;;;;;;;;;;;;-4.89;87.67;103184.22;4935519;29;19911;-73
2023/02/05 09:34:04;;;;;;;;;;;;;;;-5.01;88.28;103190.31;4935521;29;19910;-75
2023/02/05 09:36:30;;;;;;;;;;;;;;;-4.89;89.01;103185.09;4935439;29;19978;-70
2023/02/05 09:38:55;;;;;;;;;;;;;;;-5.00;88.72;103179.03;4918368;29;19947;-68
2023/02/05 09:41:30;;;;;;;;;;;;;;;-5.02;88.50;103173.84;4934598;29;19954;-68
2023/02/05 09:44:06;;;;;;;;;;;;;;;-4.89;88.77;103173.84;4918028;29;19925;-70
2023/02/05 09:46:41;;;;;;;;;;;;;;;-4.77;87.57;103164.25;4935359;29;20009;-67
2023/02/05 09:49:16;;;;;;;;;;;;;;;-4.73;87.81;103159.88;4936230;29;19910;-69
2023/02/05 09:51:48;;;;;;;;;;;;;;;-4.71;87.11;103153.81;4935299;29;19910;-71
2023/02/05 09:54:15;;;;;;;;;;;;;;;-4.76;87.89;103159.91;4934999;29;20359;-68
2023/02/05 09:56:42;;;;;;;;;;;;;;;-4.78;88.40;103151.25;4934931;29;20048;-71
2023/02/05 09:59:09;;;;;;;;;;;;;;;-4.70;87.54;103145.13;4935109;29;20009;-64
2023/02/05 10:01:39;;;;;;;;;;;;;;;-4.62;87.57;103141.66;4935190;29;20033;-65
2023/02/05 10:04:10;;;;;;;;;;;;;;;-4.59;87.25;103137.31;4935331;29;19997;-68
2023/02/05 10:06:35;;;;;;;;;;;;;;;-4.52;87.24;103132.94;4917791;29;19955;-65
2023/02/05 10:09:23;;;;;;;;;;;;;;;-4.49;87.86;103132.91;4935225;29;19914;-76
2023/02/05 10:11:54;;;;;;;;;;;;;;;-4.43;87.24;103133.72;4935204;29;20368;-72
2023/02/05 10:14:19;;;;;;;;;;;;;;;-4.48;86.99;103132.91;4935005;29;19921;-73
2023/02/05 10:16:45;;;;;;;;;;;;;;;-4.46;86.85;103127.69;4917861;29;20013;-71
2023/02/05 10:19:25;;;;;;;;;;;;;;;-4.45;86.70;103127.69;4934686;29;20283;-69
2023/02/05 10:21:50;;;;;;;;;;;;;;;-4.54;86.12;103135.53;4935200;29;20403;-69
2023/02/05 10:24:34;;;;;;;;;;;;;;;-4.52;86.17;103125.13;4934914;29;20018;-71
2023/02/05 10:27:00;;;;;;;;;;;;;;;-4.44;85.99;103125.94;4917659;29;19918;-72
2023/02/05 10:29:25;;;;;;;;;;;;;;;-4.58;84.58;103112.16;4934862;29;19910;-72
2023/02/05 10:31:53;;;;;;;;;;;;;;;-4.61;86.49;103107.00;4917325;29;20378;-73
2023/02/05 10:34:53;;;;;;;;;;;;;;;-4.50;86.90;103102.56;4934850;29;19910;-76
2023/02/05 10:37:20;;;;;;;;;;;;;;;-4.47;85.51;103099.97;4860798;29;20025;-75
2023/02/05 10:39:46;;;;;;;;;;;;;;;-4.48;85.78;103090.44;4925649;29;20008;-75
2023/02/05 10:42:25;;;;;;;;;;;;;;;-4.47;85.64;103095.63;4936030;29;19910;-70
2023/02/05 10:44:57;;;;;;;;;;;;;;;-4.39;85.82;103092.97;4935749;29;19918;-73
2023/02/05 10:47:35;;;;;;;;;;;;;;;-4.39;85.91;103092.97;4935845;29;19910;-74
2023/02/05 10:50:02;;;;;;;;;;;;;;;-4.43;84.60;103073.03;4936415;29;19910;-71
2023/02/05 10:52:30;;;;;;;;;;;;;;;-4.46;85.37;103071.34;4936276;29;19926;-74
2023/02/05 10:54:55;;;;;;;;;;;;;;;-4.50;85.03;103074.84;4920769;29;20009;-72
2023/02/05 10:57:22;;;;;;;;;;;;;;;-4.59;84.63;103059.28;4938119;29;19941;-71
2023/02/05 10:59:55;;;;;;;;;;;;;;;-4.55;85.30;103045.41;4905166;29;19911;-73
2023/02/05 11:02:21;;;;;;;;;;;;;;;-4.52;85.95;103042.78;4937975;29;19911;-70
2023/02/05 11:05:04;;;;;;;;;;;;;;;-4.49;85.76;103041.88;4922037;29;19915;-73
2023/02/05 11:07:39;;;;;;;;;;;;;;;-4.51;84.77;103035.84;4924912;29;19918;-72
2023/02/05 11:10:31;;;;;;;;;;;;;;;-4.48;85.10;103035.81;4939718;29;20286;-72
2023/02/05 11:13:01;;;;;;;;;;;;;;;-4.35;85.66;103029.63;4937915;29;19911;-72
2023/02/05 11:15:36;;;;;;;;;;;;;;;-4.27;84.60;103030.44;4923007;29;19917;-75
2023/02/05 11:18:20;;;;;;;;;;;;;;;-4.25;84.49;103027.84;4939532;29;19934;-71
2023/02/05 11:20:53;;;;;;;;;;;;;;;-4.46;84.17;103014.13;4938771;29;19911;-72
2023/02/05 11:23:20;;;;;;;;;;;;;;;-4.48;84.63;103000.25;4940777;29;20276;-70
2023/02/05 11:25:51;;;;;;;;;;;;;;;-4.54;84.14;102992.50;4942294;29;19917;-76
2023/02/05 11:28:26;;;;;;;;;;;;;;;-4.52;85.48;102992.50;4939467;29;19912;-70
2023/02/05 11:30:52;;;;;;;;;;;;;;;-4.45;85.26;102994.16;4937560;29;19910;-73
2023/02/05 11:33:20;;;;;;;;;;;;;;;-4.31;85.13;102992.34;4937858;29;20263;-73
2023/02/05 11:36:09;;;;;;;;;;;;;;;-4.21;84.50;102982.69;4920567;29;19911;-76
2023/02/05 11:38:49;;;;;;;;;;;;;;;-4.20;83.57;102980.09;4937641;29;19953;-80
2023/02/05 11:41:31;;;;;;;;;;;;;;;-4.18;84.31;102970.53;4937327;29;19910;-72
2023/02/05 11:43:58;;;;;;;;;;;;;;;-4.24;83.41;102970.59;4937600;29;20014;-72
2023/02/05 11:46:25;;;;;;;;;;;;;;;-4.16;85.15;102973.97;4937371;29;19981;-70
2023/02/05 11:48:53;;;;;;;;;;;;;;;-3.98;84.66;102965.13;4936873;29;20024;-72
2023/02/05 11:51:33;;;;;;;;;;;;;;;-3.86;83.94;102964.97;4937200;29;19911;-74
2023/02/05 11:54:00;;;;;;;;;;;;;;;-3.89;83.41;102964.16;4920005;29;20363;-71
2023/02/05 11:56:25;;;;;;;;;;;;;;;-3.72;82.99;102957.03;4937050;29;20450;-73
2023/02/05 11:59:01;;;;;;;;;;;;;;;-3.72;82.97;102956.16;4937077;29;20026;-75
2023/02/05 12:01:32;;;;;;;;;;;;;;;-3.87;82.58;102959.78;4936642;29;20013;-74
2023/02/05 12:04:22;;;;;;;;;;;;;;;-3.92;83.36;102959.00;4936422;29;19915;-74
2023/02/05 12:06:50;;;;;;;;;;;;;;;-3.97;84.13;102956.44;4936381;29;20001;-72
2023/02/05 12:09:20;;;;;;;;;;;;;;;-4.08;83.52;102948.72;4936167;29;19910;-72
2023/02/05 12:12:17;;;;;;;;;;;;;;;-4.07;84.25;102945.25;4936732;29;19914;-72
2023/02/05 12:14:57;;;;;;;;;;;;;;;-3.85;84.14;102945.03;4936420;29;20347;-73
2023/02/05 12:17:25;;;;;;;;;;;;;;;-3.87;82.83;102946.78;4936450;29;19979;-70
2023/02/05 12:19:55;;;;;;;;;;;;;;;-4.06;83.45;102944.38;4937534;29;19911;-75
2023/02/05 12:22:27;;;;;;;;;;;;;;;-4.11;83.82;102938.34;4921392;29;19957;-73
2023/02/05 12:25:12;;;;;;;;;;;;;;;-4.20;83.34;102937.59;4919489;29;19910;-71
2023/02/05 12:27:46;;;;;;;;;;;;;;;-4.35;83.55;102946.38;4933145;29;19918;-71
2023/02/05 12:30:24;;;;;;;;;;;;;;;-4.44;84.24;102938.66;4918948;29;19997;-71
2023/02/05 12:32:49;;;;;;;;;;;;;;;-4.42;84.39;102942.13;4934985;29;20374;-72
2023/02/05 12:35:22;;;;;;;;;;;;;;;-4.39;84.62;102942.09;4919977;29;19910;-71
2023/02/05 12:37:47;;;;;;;;;;;;;;;-4.44;84.47;102936.06;4935265;29;19917;-73
2023/02/05 12:40:37;;;;;;;;;;;;;;;-4.49;85.27;102930.06;4918849;29;20531;-71
2023/02/05 12:43:21;;;;;;;;;;;;;;;-4.49;85.15;102927.47;4935022;29;19914;-72
2023/02/05 12:45:54;;;;;;;;;;;;;;;-4.44;84.18;102929.13;4903195;29;19917;-74
2023/02/05 12:48:19;;;;;;;;;;;;;;;-4.40;85.34;102928.22;4918912;29;19918;-74